Impacts TAF Board INFO
FOR SITUATIONAL AWARENESS. NOT TO BE USED FOR FLIGHT PLANNING PURPOSES.
IDs:

KCLT - Charlotte/Douglas In, NC, US

Issued at 2144 UTC 19 Jun 2018
Updated at 2205 UTC 19 Jun 2018
Potential Impact None Slight Moderate High
Time2152Z 19/23Z 20/00Z 20/01Z 20/02Z 20/03Z 20/04Z 20/05Z 20/06Z 20/07Z 20/08Z 20/09Z 20/10Z 20/11Z>>
Type OBS PRVL PRVL PRVL PRVL PRVL PRVL PRVL PRVL PRVL PRVL PRVL PRVL PRVL
VIS 10 >6 >6 >6 >6 >6 >6 >6 >6 >6 >6 >6 >6 >6
CIG -- -- -- -- -- -- -- -- -- -- -- -- -- --
Cover SCT SCT SCT SCT SCT SCT SCT SCT SCT SCT SCT SCT SCT SCT
FltCat VFR VFR VFR VFR VFR VFR VFR VFR VFR VFR VFR VFR VFR VFR
WX -- VCSH -- -- -- -- -- -- -- -- -- -- -- --
WDir 340 330 290 290 290 340 340 340 340 340 340 340 340 340
WSpd 8 6 6 6 6 4 4 4 4 4 4 4 4 4
WGst -- -- -- -- -- -- -- -- -- -- -- -- -- --

Raw TAF
KCLT 192144Z 1922/2024 33006KT P6SM VCSH SCT060
  FM200000 29006KT P6SM SCT070
  FM200300 34004KT P6SM SCT250
  FM201500 32004KT P6SM FEW050
  FM201700 28005KT P6SM SCT060
  PROB30 2020/2024 4SM -TSRA BKN060CB


Raw METAR
KCLT 192152Z 34008KT 10SM SCT060 SCT150 34/22 A2990 RMK AO2 SLP115 CB DSNT SE AND S TCU DSNT SE-S T03440217
KCLT 192052Z 29005KT 10SM SCT060 36/21 A2991 RMK AO2 SLP117 TCU DSNT NE AND SE-S T03560206 56023
KCLT 191952Z 26005KT 10SM SCT055 36/21 A2993 RMK AO2 SLP124 TCU DSNT NW-N T03560206

METAR Board
Radar Display
Forecast Discussion

FOR SITUATIONAL AWARENESS. NOT TO BE USED FOR FLIGHT PLANNING PURPOSES.